Time;durP1;ratioP1;P1;durP2;ratioP2;P2;SDS_P1;SDS_P2;PMS_P1;PMS_P2;Temp;Humidity;BMP_temperature;BMP_pressure;BME280_temperature;BME280_humidity;BME280_pressure;Samples;Min_cycle;Max_cycle;Signal;HPM_P1;HPM_P2
2021/08/01 00:01:58;;;;;;;;;0.75;0.00;;;;;18.08;57.12;100843.59;6086376;23;45309;-76
2021/08/01 00:04:23;;;;;;;;;0.00;0.00;;;;;18.05;57.45;100839.28;6085441;23;45980;-77
2021/08/01 00:06:49;;;;;;;;;0.00;0.00;;;;;17.99;57.87;100844.66;6085668;23;53341;-77
2021/08/01 00:09:16;;;;;;;;;0.00;0.00;;;;;17.95;57.97;100837.72;6086368;23;56006;-77
2021/08/01 00:11:41;;;;;;;;;0.00;0.00;;;;;17.93;57.68;100837.75;6086320;23;45400;-77
2021/08/01 00:14:07;;;;;;;;;0.00;0.00;;;;;17.76;57.69;100808.28;6088819;23;45366;-77
2021/08/01 00:16:32;;;;;;;;;0.00;0.00;;;;;17.93;57.61;100843.03;6087713;23;56765;-78
2021/08/01 00:18:57;;;;;;;;;0.00;0.00;;;;;17.92;58.14;100833.38;6086177;23;50009;-76
2021/08/01 00:21:23;;;;;;;;;0.00;0.00;;;;;17.94;57.61;100835.97;6088819;23;45420;-77
2021/08/01 00:23:48;;;;;;;;;0.00;0.00;;;;;17.93;58.09;100835.13;6086853;23;48609;-77
2021/08/01 00:26:13;;;;;;;;;0.00;0.00;;;;;18.00;57.67;100835.00;6088818;23;45354;-77
2021/08/01 00:28:39;;;;;;;;;0.00;0.00;;;;;18.09;57.73;100845.31;6088509;23;47521;-77
2021/08/01 00:31:04;;;;;;;;;0.25;0.00;;;;;17.97;57.71;100833.28;6088606;23;45350;-77
2021/08/01 00:33:29;;;;;;;;;0.00;0.00;;;;;17.87;57.66;100832.63;6087842;23;51618;-77
2021/08/01 00:35:54;;;;;;;;;0.00;0.00;;;;;17.98;58.06;100848.22;6088330;23;55508;-78
2021/08/01 00:38:20;;;;;;;;;1.00;0.50;;;;;18.05;57.72;100851.56;6088778;23;45434;-77
2021/08/01 00:40:45;;;;;;;;;0.00;0.00;;;;;18.08;57.94;100849.75;6088500;23;45339;-77
2021/08/01 00:43:10;;;;;;;;;0.25;0.00;;;;;17.98;58.09;100846.41;6088530;23;46824;-78
2021/08/01 00:45:37;;;;;;;;;1.00;0.00;;;;;17.86;58.39;100842.28;6088642;23;45221;-77
2021/08/01 00:48:02;;;;;;;;;0.00;0.00;;;;;17.87;58.22;100845.78;6088912;23;45353;-78
2021/08/01 00:50:28;;;;;;;;;1.00;0.00;;;;;17.92;57.76;100843.91;6086064;23;45358;-77
2021/08/01 00:52:55;;;;;;;;;0.00;0.00;;;;;17.79;58.23;100840.66;6088163;23;46189;-76
2021/08/01 00:55:21;;;;;;;;;0.00;0.00;;;;;17.63;58.38;100828.69;6087974;23;45363;-78
2021/08/01 00:57:46;;;;;;;;;0.00;0.00;;;;;17.67;58.91;100844.41;6088472;23;45460;-78
2021/08/01 01:00:30;;;;;;;;;0.00;0.00;;;;;17.50;58.30;100814.91;6087059;23;45273;-78
2021/08/01 01:03:00;;;;;;;;;0.00;0.00;;;;;17.63;58.62;100836.59;6088594;23;46545;-78
2021/08/01 01:05:30;;;;;;;;;0.00;0.00;;;;;17.60;59.05;100848.06;6088122;23;45314;-78
2021/08/01 01:08:02;;;;;;;;;0.00;0.00;;;;;17.62;58.68;100840.13;6088301;23;45411;-78
2021/08/01 01:10:51;;;;;;;;;0.00;0.00;;;;;17.59;58.72;100830.53;6087824;23;45517;-76
2021/08/01 01:13:27;;;;;;;;;0.00;0.00;;;;;17.68;58.54;100830.38;6086237;23;48427;-76
2021/08/01 01:15:56;;;;;;;;;0.00;0.00;;;;;17.80;58.56;100844.19;6087838;23;45731;-78
2021/08/01 01:18:40;;;;;;;;;0.00;0.00;;;;;17.93;58.47;100850.94;6087745;23;45426;-77
2021/08/01 01:21:11;;;;;;;;;0.00;0.00;;;;;17.90;58.50;100834.31;6088308;23;45359;-76
2021/08/01 01:23:40;;;;;;;;;0.00;0.00;;;;;18.03;58.09;100848.09;6086792;23;52685;-76
2021/08/01 01:26:12;;;;;;;;;0.00;0.00;;;;;17.92;57.99;100824.63;6088545;23;45703;-77
2021/08/01 01:28:40;;;;;;;;;0.00;0.00;;;;;18.00;58.42;100835.00;6086430;23;45717;-77
2021/08/01 01:31:13;;;;;;;;;0.75;0.00;;;;;18.08;58.27;100840.97;6088217;23;45297;-77
2021/08/01 01:33:47;;;;;;;;;0.00;0.00;;;;;18.13;58.22;100854.94;6087636;23;46281;-78
2021/08/01 01:36:17;;;;;;;;;0.00;0.00;;;;;17.97;58.02;100826.25;6088214;23;45325;-76
2021/08/01 01:38:43;;;;;;;;;0.00;0.00;;;;;18.13;58.07;100841.75;6087965;23;45285;-76
2021/08/01 01:41:09;;;;;;;;;0.00;0.00;;;;;18.10;58.30;100853.22;6088686;23;45322;-78
2021/08/01 01:43:35;;;;;;;;;1.25;0.00;;;;;18.13;57.89;100852.28;6085870;23;45452;-75
2021/08/01 01:46:01;;;;;;;;;0.00;0.00;;;;;18.13;57.71;100841.75;6088029;23;45763;-77
2021/08/01 01:48:26;;;;;;;;;0.00;0.00;;;;;18.11;57.34;100844.41;6088167;23;45462;-78
2021/08/01 01:50:52;;;;;;;;;0.00;0.00;;;;;18.19;57.95;100852.16;6088071;23;45294;-78
2021/08/01 01:53:19;;;;;;;;;0.00;0.00;;;;;18.23;57.56;100845.09;6087562;23;46434;-78
2021/08/01 01:55:46;;;;;;;;;0.00;0.00;;;;;18.24;57.52;100844.16;6088026;23;45328;-78
2021/08/01 01:58:12;;;;;;;;;0.00;0.00;;;;;18.18;57.26;100845.19;6087964;23;45337;-75
2021/08/01 02:00:38;;;;;;;;;0.00;0.00;;;;;17.79;57.49;100788.00;6088121;23;45671;-78
2021/08/01 02:03:04;;;;;;;;;0.00;0.00;;;;;18.04;57.53;100842.78;6088138;23;45448;-76
2021/08/01 02:05:29;;;;;;;;;0.00;0.00;;;;;17.86;58.01;100807.19;6087541;23;45821;-77
2021/08/01 02:07:54;;;;;;;;;0.00;0.00;;;;;18.03;57.82;100827.91;6087415;23;53446;-79
2021/08/01 02:10:29;;;;;;;;;0.00;0.00;;;;;18.06;58.01;100841.00;6088502;23;45385;-79
2021/08/01 02:12:57;;;;;;;;;0.00;0.00;;;;;17.97;57.87;100839.44;6087147;23;46620;-77
2021/08/01 02:15:30;;;;;;;;;0.75;0.00;;;;;17.92;57.86;100836.00;6087454;23;45359;-77
2021/08/01 02:18:08;;;;;;;;;0.00;0.00;;;;;17.86;58.58;100841.44;6087660;23;45324;-78
2021/08/01 02:20:43;;;;;;;;;0.00;0.00;;;;;17.74;58.86;100803.03;6088467;23;45344;-78
2021/08/01 02:23:10;;;;;;;;;0.00;0.00;;;;;17.95;58.54;100833.31;6087064;23;45460;-77
2021/08/01 02:25:37;;;;;;;;;0.00;0.00;;;;;18.02;57.82;100835.81;6087954;23;45265;-77
2021/08/01 02:28:07;;;;;;;;;0.00;0.00;;;;;17.94;57.87;100831.59;6087782;23;45350;-78
2021/08/01 02:30:34;;;;;;;;;0.00;0.00;;;;;17.84;58.04;100844.09;6088409;23;45281;-78
2021/08/01 02:33:00;;;;;;;;;0.00;0.00;;;;;17.59;58.71;100826.16;6086850;23;46297;-78
2021/08/01 02:35:27;;;;;;;;;0.50;0.00;;;;;17.44;59.05;100819.41;6086830;23;45310;-78
2021/08/01 02:37:56;;;;;;;;;0.00;0.00;;;;;17.53;59.00;100843.81;6087110;23;45428;-77
2021/08/01 02:40:21;;;;;;;;;1.00;0.00;;;;;17.54;59.14;100835.88;6088135;23;45750;-78
2021/08/01 02:42:50;;;;;;;;;0.00;0.00;;;;;17.50;59.50;100835.97;6086917;23;46169;-78
2021/08/01 02:45:16;;;;;;;;;0.00;0.00;;;;;17.55;59.05;100820.97;6087515;23;45554;-77
2021/08/01 02:47:44;;;;;;;;;0.00;0.00;;;;;17.52;59.39;100831.56;6087493;23;45316;-77
2021/08/01 02:50:11;;;;;;;;;0.00;0.00;;;;;17.35;59.69;100820.44;6088089;23;45454;-78
2021/08/01 02:52:58;;;;;;;;;0.00;0.00;;;;;17.02;59.86;100779.78;6087098;23;45651;-77
2021/08/01 02:55:27;;;;;;;;;0.00;0.00;;;;;17.21;60.03;100833.84;6087487;23;45421;-77
2021/08/01 02:57:53;;;;;;;;;0.00;0.00;;;;;17.21;60.12;100833.84;6087021;23;45325;-78
2021/08/01 03:00:20;;;;;;;;;0.00;0.00;;;;;17.17;60.21;100826.91;6088034;23;45342;-77
2021/08/01 03:02:48;;;;;;;;;0.00;0.00;;;;;17.25;60.19;100823.25;6086053;23;45253;-78
2021/08/01 03:05:14;;;;;;;;;0.00;0.00;;;;;17.17;60.56;100810.25;6087456;23;45476;-78
2021/08/01 03:07:40;;;;;;;;;0.00;0.00;;;;;17.30;60.67;100832.81;6087199;23;45364;-78
2021/08/01 03:10:06;;;;;;;;;0.00;0.00;;;;;17.38;60.51;100835.31;6087675;23;45302;-78
2021/08/01 03:12:31;;;;;;;;;0.00;0.00;;;;;17.34;60.50;100828.38;6087142;23;45395;-77
2021/08/01 03:14:57;;;;;;;;;0.00;0.00;;;;;17.26;60.11;100820.59;6087168;23;45345;-76
2021/08/01 03:17:22;;;;;;;;;0.00;0.00;;;;;17.24;60.09;100824.16;6087066;23;45297;-77
2021/08/01 03:19:47;;;;;;;;;0.00;0.00;;;;;17.27;60.41;100835.50;6085741;23;45441;-78
2021/08/01 03:22:13;;;;;;;;;1.00;0.00;;;;;17.19;60.73;100826.88;6085222;23;46090;-78
2021/08/01 03:24:38;;;;;;;;;0.00;0.00;;;;;17.20;60.02;100837.38;6087319;23;45344;-77
2021/08/01 03:27:04;;;;;;;;;0.00;0.00;;;;;16.99;59.84;100785.13;6084825;23;45458;-76
2021/08/01 03:29:29;;;;;;;;;0.00;0.00;;;;;17.26;60.48;100832.88;6087740;23;45271;-77
2021/08/01 03:31:54;;;;;;;;;0.00;0.00;;;;;17.16;60.01;100801.50;6086657;23;46099;-77
2021/08/01 03:34:20;;;;;;;;;0.00;0.00;;;;;17.31;60.08;100829.25;6085224;23;45321;-77
2021/08/01 03:36:47;;;;;;;;;0.00;0.00;;;;;17.26;60.33;100806.56;6084488;23;45331;-78
2021/08/01 03:39:12;;;;;;;;;0.00;0.00;;;;;17.47;59.87;100827.25;6087653;23;45423;-77
2021/08/01 03:41:39;;;;;;;;;0.00;0.00;;;;;17.55;60.28;100821.81;6086888;23;45370;-77
2021/08/01 03:44:04;;;;;;;;;0.50;0.00;;;;;17.62;59.56;100829.59;6087531;23;45305;-77
2021/08/01 03:46:30;;;;;;;;;0.00;0.00;;;;;17.57;59.85;100813.88;6088591;23;45437;-77
2021/08/01 03:48:55;;;;;;;;;0.00;0.00;;;;;17.55;59.84;100810.44;6089343;23;45313;-77
2021/08/01 03:51:21;;;;;;;;;0.00;0.00;;;;;17.68;59.87;100829.50;6087938;23;45232;-78
2021/08/01 03:53:46;;;;;;;;;0.00;0.00;;;;;17.69;59.46;100824.19;6087530;23;45695;-77
2021/08/01 03:56:11;;;;;;;;;0.00;0.00;;;;;17.63;58.97;100811.16;6088354;23;46321;-77
2021/08/01 03:58:36;;;;;;;;;0.00;0.00;;;;;17.51;59.07;100785.94;6089749;23;45407;-77
2021/08/01 04:01:02;;;;;;;;;0.00;0.00;;;;;17.68;58.97;100811.06;6088666;23;45290;-77
2021/08/01 04:03:27;;;;;;;;;0.00;0.00;;;;;17.77;58.78;100829.31;6088383;23;45334;-77
2021/08/01 04:05:53;;;;;;;;;0.00;0.00;;;;;17.56;59.15;100796.38;6088666;23;46887;-77
2021/08/01 04:08:18;;;;;;;;;0.00;0.00;;;;;17.62;59.31;100801.53;6089146;23;45352;-77
2021/08/01 04:10:43;;;;;;;;;0.00;0.00;;;;;17.68;59.21;100800.53;6088220;23;57386;-79
2021/08/01 04:13:08;;;;;;;;;0.00;0.00;;;;;17.68;58.80;100803.16;6089338;23;45273;-77
2021/08/01 04:15:34;;;;;;;;;0.00;0.00;;;;;17.83;59.35;100828.31;6087149;23;45317;-77
2021/08/01 04:18:05;;;;;;;;;0.00;0.00;;;;;17.71;59.18;100801.31;6089316;23;45401;-77
2021/08/01 04:20:31;;;;;;;;;0.00;0.00;;;;;17.83;59.09;100821.25;6088656;23;45963;-78
2021/08/01 04:22:56;;;;;;;;;0.00;0.00;;;;;17.46;59.25;100770.22;6089082;23;45300;-78
2021/08/01 04:25:22;;;;;;;;;0.00;0.00;;;;;17.54;59.41;100788.50;6089361;23;45262;-77
2021/08/01 04:27:48;;;;;;;;;0.00;0.00;;;;;17.71;59.18;100825.00;6088751;23;45398;-78
2021/08/01 04:30:13;;;;;;;;;0.00;0.00;;;;;17.55;59.16;100813.06;6087887;23;46371;-77
2021/08/01 04:32:39;;;;;;;;;0.00;0.00;;;;;17.57;59.43;100821.78;6087824;23;45268;-78
2021/08/01 04:35:05;;;;;;;;;0.00;0.00;;;;;17.55;59.59;100816.56;6089423;23;45687;-77
2021/08/01 04:37:31;;;;;;;;;0.00;0.00;;;;;17.63;59.67;100821.69;6086478;23;45538;-77
2021/08/01 04:39:56;;;;;;;;;0.00;0.00;;;;;17.64;59.37;100823.41;6089117;23;45938;-77
2021/08/01 04:42:21;;;;;;;;;0.00;0.00;;;;;17.64;59.26;100823.41;6088084;23;45358;-77
2021/08/01 04:44:47;;;;;;;;;0.00;0.00;;;;;17.57;59.63;100820.03;6086322;23;50174;-77
2021/08/01 04:47:14;;;;;;;;;0.00;0.00;;;;;17.53;59.69;100815.72;6089467;23;45318;-77
2021/08/01 04:49:40;;;;;;;;;0.00;0.00;;;;;17.46;59.66;100814.13;6085850;23;46375;-77
2021/08/01 04:52:06;;;;;;;;;0.00;0.00;;;;;17.30;60.34;100800.38;6087880;23;45268;-77
2021/08/01 04:54:34;;;;;;;;;0.00;0.00;;;;;17.40;60.20;100824.75;6089050;23;45640;-77
2021/08/01 04:56:59;;;;;;;;;0.00;0.00;;;;;17.41;59.85;100823.84;6088072;23;45386;-77
2021/08/01 04:59:25;;;;;;;;;0.75;0.00;;;;;17.33;60.29;100813.47;6087872;23;62106;-77
2021/08/01 05:01:50;;;;;;;;;0.00;0.00;;;;;17.31;60.41;100813.47;6085868;23;45730;-77
2021/08/01 05:04:15;;;;;;;;;0.00;0.00;;;;;17.19;60.30;100796.19;6088074;23;45358;-78
2021/08/01 05:06:40;;;;;;;;;0.00;0.00;;;;;17.31;60.48;100810.84;6088416;23;45414;-77
2021/08/01 05:09:06;;;;;;;;;0.00;0.00;;;;;17.29;60.44;100817.03;6088658;23;49418;-77
2021/08/01 05:11:31;;;;;;;;;0.00;0.00;;;;;17.34;60.38;100823.09;6087808;23;45300;-77
2021/08/01 05:13:56;;;;;;;;;0.00;0.00;;;;;17.27;60.88;100818.84;6087374;23;45412;-77
2021/08/01 05:16:22;;;;;;;;;0.00;0.00;;;;;17.20;60.48;100810.19;6087459;23;45480;-77
2021/08/01 05:18:47;;;;;;;;;0.00;0.00;;;;;16.96;61.42;100800.03;6087270;23;61740;-77
2021/08/01 05:21:19;;;;;;;;;0.00;0.00;;;;;17.11;61.27;100824.38;6088167;23;45886;-77
2021/08/01 05:23:44;;;;;;;;;0.00;0.00;;;;;17.14;61.74;100821.69;6088769;23;45541;-77
2021/08/01 05:26:10;;;;;;;;;0.00;0.00;;;;;17.25;60.84;100833.78;6087304;23;45284;-77
2021/08/01 05:28:35;;;;;;;;;0.00;0.00;;;;;17.17;61.11;100837.41;6086589;23;46113;-77
2021/08/01 05:31:00;;;;;;;;;0.00;0.00;;;;;17.20;61.13;100836.50;6086631;23;51751;-77
2021/08/01 05:33:26;;;;;;;;;0.00;0.00;;;;;17.33;60.92;100832.75;6087782;23;47731;-77
2021/08/01 05:35:52;;;;;;;;;0.00;0.00;;;;;17.37;60.86;100833.56;6088533;23;45427;-77
2021/08/01 05:38:17;;;;;;;;;0.00;0.00;;;;;17.38;60.54;100830.03;6087796;23;45996;-78
2021/08/01 05:40:43;;;;;;;;;0.00;0.00;;;;;17.34;60.89;100826.59;6085689;23;45662;-77
2021/08/01 05:43:08;;;;;;;;;0.00;0.00;;;;;17.13;61.05;100805.94;6087226;23;45330;-77
2021/08/01 05:45:34;;;;;;;;;0.00;0.00;;;;;17.37;60.69;100843.22;6086830;23;45297;-77
2021/08/01 05:47:59;;;;;;;;;0.75;0.00;;;;;17.30;60.95;100845.09;6087833;23;67365;-78
2021/08/01 05:50:24;;;;;;;;;0.00;0.00;;;;;17.31;61.19;100842.41;6086691;23;59023;-77
2021/08/01 05:52:49;;;;;;;;;0.00;0.00;;;;;17.35;61.29;100852.03;6086737;23;45324;-77
2021/08/01 05:55:15;;;;;;;;;0.00;0.00;;;;;17.33;60.50;100838.00;6086521;23;45353;-77
2021/08/01 05:57:40;;;;;;;;;0.00;0.00;;;;;17.38;60.85;100839.69;6087054;23;45411;-78
2021/08/01 06:00:06;;;;;;;;;1.00;0.00;;;;;17.00;60.75;100794.75;6087257;23;54335;-80
2021/08/01 06:02:31;;;;;;;;;0.00;0.00;;;;;17.34;61.00;100837.09;6086257;23;45479;-80
2021/08/01 06:04:56;;;;;;;;;0.00;0.00;;;;;17.32;60.88;100846.81;6085519;23;47006;-76
2021/08/01 06:07:22;;;;;;;;;1.00;0.00;;;;;17.20;60.78;100826.84;6087241;23;45509;-77
2021/08/01 06:09:47;;;;;;;;;0.00;0.00;;;;;17.29;61.27;100838.97;6087119;23;45400;-77
2021/08/01 06:12:16;;;;;;;;;0.00;0.00;;;;;17.30;61.09;100839.84;6086495;23;45411;-77
2021/08/01 06:14:41;;;;;;;;;0.00;0.00;;;;;17.06;61.08;100805.16;6087764;23;45407;-77
2021/08/01 06:17:06;;;;;;;;;0.00;0.00;;;;;17.16;61.05;100822.53;6083096;23;62838;-76
2021/08/01 06:19:32;;;;;;;;;0.00;0.00;;;;;17.28;61.29;100836.38;6086767;23;46682;-77
2021/08/01 06:21:57;;;;;;;;;0.00;0.00;;;;;17.28;61.37;100839.88;6085944;23;45454;-77
2021/08/01 06:24:23;;;;;;;;;0.00;0.00;;;;;17.26;61.16;100840.78;6086217;23;45411;-77
2021/08/01 06:26:48;;;;;;;;;0.00;0.00;;;;;17.38;61.45;100853.72;6086442;23;45297;-77
2021/08/01 06:29:14;;;;;;;;;0.00;0.00;;;;;17.46;61.52;100846.53;6087643;23;49328;-77
2021/08/01 06:31:39;;;;;;;;;0.00;0.00;;;;;17.66;61.21;100844.44;6084961;23;45387;-78
2021/08/01 06:34:04;;;;;;;;;0.75;0.25;;;;;17.66;60.17;100829.50;6086747;23;45618;-76
2021/08/01 06:36:29;;;;;;;;;0.50;0.25;;;;;17.82;60.84;100859.03;6086643;23;59144;-77
2021/08/01 06:38:55;;;;;;;;;0.00;0.00;;;;;17.99;60.30;100863.09;6085550;23;45292;-78
2021/08/01 06:41:20;;;;;;;;;0.00;0.00;;;;;18.05;60.17;100862.09;6085394;23;45243;-77
2021/08/01 06:43:46;;;;;;;;;0.00;0.00;;;;;18.04;60.09;100871.75;6087591;23;45282;-77
2021/08/01 06:46:11;;;;;;;;;0.00;0.00;;;;;17.86;59.72;100851.97;6087286;23;45523;-77
2021/08/01 06:48:38;;;;;;;;;0.00;0.00;;;;;17.95;60.11;100864.91;6084968;23;45359;-77
2021/08/01 06:51:03;;;;;;;;;0.00;0.00;;;;;17.96;59.77;100871.94;6087296;23;45442;-77
2021/08/01 06:53:29;;;;;;;;;0.00;0.00;;;;;17.69;59.98;100849.63;6087513;23;45389;-77
2021/08/01 06:55:55;;;;;;;;;0.00;0.00;;;;;17.57;60.07;100835.81;6087632;23;45626;-77
2021/08/01 06:58:21;;;;;;;;;0.00;0.00;;;;;17.77;60.53;100860.03;6084028;23;45422;-77
2021/08/01 07:00:50;;;;;;;;;0.00;0.00;;;;;17.85;60.00;100871.25;6086639;23;45395;-78
2021/08/01 07:03:16;;;;;;;;;0.00;0.00;;;;;17.77;60.10;100862.66;6087352;23;45409;-76
2021/08/01 07:05:42;;;;;;;;;1.00;1.00;;;;;17.64;60.55;100852.34;6086585;23;46221;-76
2021/08/01 07:08:08;;;;;;;;;0.00;0.00;;;;;17.86;60.59;100871.22;6084687;23;45326;-77
2021/08/01 07:10:34;;;;;;;;;0.00;0.00;;;;;17.81;59.93;100854.69;6086829;23;45320;-77
2021/08/01 07:13:06;;;;;;;;;0.00;0.00;;;;;17.90;60.61;100861.53;6086708;23;45425;-77
2021/08/01 07:15:32;;;;;;;;;0.00;0.00;;;;;18.03;59.53;100874.44;6087163;23;45701;-76
2021/08/01 07:17:58;;;;;;;;;0.00;0.00;;;;;18.01;59.73;100869.19;6086342;23;45306;-76
2021/08/01 07:20:24;;;;;;;;;0.00;0.00;;;;;18.11;59.57;100886.56;6085832;23;45329;-76
2021/08/01 07:22:50;;;;;;;;;0.00;0.00;;;;;18.21;59.18;100886.38;6084542;23;45549;-76
2021/08/01 07:25:16;;;;;;;;;0.00;0.00;;;;;18.18;58.96;100874.16;6085014;23;45542;-75
2021/08/01 07:27:41;;;;;;;;;0.00;0.00;;;;;18.28;58.49;100893.25;6086340;23;45286;-75
2021/08/01 07:30:07;;;;;;;;;0.00;0.00;;;;;18.24;58.14;100875.78;6087514;23;45351;-76
2021/08/01 07:32:33;;;;;;;;;0.00;0.00;;;;;18.19;58.31;100891.69;6087865;23;45479;-75
2021/08/01 07:34:58;;;;;;;;;0.00;0.00;;;;;18.32;58.34;100902.81;6087475;23;45483;-75
2021/08/01 07:37:24;;;;;;;;;0.00;0.00;;;;;18.32;58.27;100887.03;6087282;23;45332;-75
2021/08/01 07:39:49;;;;;;;;;0.00;0.00;;;;;18.37;57.81;100881.66;6087415;23;45408;-75
2021/08/01 07:42:15;;;;;;;;;0.00;0.00;;;;;18.38;57.48;100880.78;6085368;23;45533;-75
2021/08/01 07:44:50;;;;;;;;;0.00;0.00;;;;;18.39;57.17;100886.91;6087134;23;45261;-76
2021/08/01 07:47:17;;;;;;;;;0.00;0.00;;;;;18.53;57.58;100907.69;6087497;23;45262;-76
2021/08/01 07:49:44;;;;;;;;;0.00;0.00;;;;;18.59;57.76;100903.13;6088158;23;45242;-75
2021/08/01 07:52:09;;;;;;;;;0.00;0.00;;;;;18.65;57.80;100896.84;6088523;23;45315;-75
2021/08/01 07:54:35;;;;;;;;;1.00;1.00;;;;;18.65;57.00;100899.50;6087120;23;45288;-74
2021/08/01 07:57:00;;;;;;;;;0.00;0.00;;;;;18.72;56.50;100916.91;6088081;23;45435;-75
2021/08/01 07:59:25;;;;;;;;;0.00;0.00;;;;;18.76;56.27;100917.72;6088187;23;45356;-76
2021/08/01 08:01:51;;;;;;;;;0.00;0.00;;;;;18.68;55.21;100894.16;6085966;23;45533;-76
2021/08/01 08:04:16;;;;;;;;;0.00;0.00;;;;;18.89;55.34;100902.47;6088001;23;49803;-75
2021/08/01 08:06:41;;;;;;;;;0.75;0.00;;;;;18.93;55.41;100896.22;6086012;23;45283;-75
2021/08/01 08:09:07;;;;;;;;;0.00;0.00;;;;;19.04;54.26;100901.22;6087429;23;45313;-75
2021/08/01 08:11:32;;;;;;;;;0.00;0.00;;;;;18.98;54.28;100875.00;6088036;23;45305;-75
2021/08/01 08:13:58;;;;;;;;;0.00;0.00;;;;;19.21;53.44;100892.06;6088345;23;45423;-75
2021/08/01 08:16:24;;;;;;;;;0.00;0.00;;;;;19.33;53.20;100910.22;6087869;23;45386;-75
2021/08/01 08:18:52;;;;;;;;;0.00;0.00;;;;;19.30;53.40;100906.81;6085798;23;45335;-75
2021/08/01 08:21:18;;;;;;;;;0.00;0.00;;;;;19.22;52.77;100899.06;6088003;23;45271;-75
2021/08/01 08:23:43;;;;;;;;;0.00;0.00;;;;;19.33;52.31;100904.09;6087323;23;45296;-74
2021/08/01 08:26:08;;;;;;;;;0.00;0.00;;;;;19.40;52.42;100918.88;6088402;23;45226;-75
2021/08/01 08:28:34;;;;;;;;;0.00;0.00;;;;;19.44;51.69;100919.63;6087802;23;45297;-75
2021/08/01 08:30:59;;;;;;;;;0.00;0.00;;;;;19.53;51.48;100913.25;6088468;23;45391;-75
2021/08/01 08:33:25;;;;;;;;;0.00;0.00;;;;;19.50;51.46;100906.28;6089078;23;45543;-75
2021/08/01 08:35:51;;;;;;;;;0.00;0.00;;;;;19.65;51.23;100912.94;6089729;23;45305;-76
2021/08/01 08:38:16;;;;;;;;;0.00;0.00;;;;;19.73;51.67;100916.22;6089870;23;45298;-76
2021/08/01 08:40:42;;;;;;;;;0.00;0.00;;;;;19.50;51.82;100899.25;6089624;23;45333;-75
2021/08/01 08:43:08;;;;;;;;;0.00;0.00;;;;;19.78;51.95;100915.25;6089566;23;45436;-75
2021/08/01 08:45:34;;;;;;;;;0.00;0.00;;;;;19.65;51.72;100898.84;6089574;23;45432;-75
2021/08/01 08:47:59;;;;;;;;;0.00;0.00;;;;;19.55;52.16;100890.31;6090019;23;45328;-75
2021/08/01 08:50:25;;;;;;;;;0.00;0.00;;;;;19.74;52.10;100915.34;6089744;23;45345;-75
2021/08/01 08:53:02;;;;;;;;;0.00;0.00;;;;;19.68;51.14;100906.69;6089512;23;46165;-75
2021/08/01 08:55:32;;;;;;;;;0.00;0.00;;;;;19.82;51.50;100917.75;6087530;23;45283;-75
2021/08/01 08:58:02;;;;;;;;;0.00;0.00;;;;;19.67;50.94;100876.81;6089614;23;45331;-75
2021/08/01 09:00:28;;;;;;;;;0.00;0.00;;;;;19.92;50.64;100902.53;6089876;23;45313;-74
2021/08/01 09:02:54;;;;;;;;;0.00;0.00;;;;;20.05;49.50;100913.66;6089380;23;45302;-75
2021/08/01 09:05:19;;;;;;;;;0.00;0.00;;;;;20.11;49.81;100913.47;6088963;23;45324;-75
2021/08/01 09:07:45;;;;;;;;;0.00;0.00;;;;;20.18;49.76;100902.72;6088909;23;45323;-75
2021/08/01 09:10:11;;;;;;;;;0.00;0.00;;;;;20.33;49.06;100923.41;6088179;23;45504;-75
2021/08/01 09:12:49;;;;;;;;;0.00;0.00;;;;;20.30;49.00;100935.88;6089240;23;45453;-75
2021/08/01 09:15:23;;;;;;;;;0.00;0.00;;;;;20.31;49.09;100927.91;6087402;23;45403;-74
2021/08/01 09:17:49;;;;;;;;;0.00;0.00;;;;;20.10;49.36;100914.41;6089725;23;45309;-74
2021/08/01 09:20:18;;;;;;;;;0.00;0.00;;;;;20.25;49.54;100921.00;6087327;23;45465;-74
2021/08/01 09:23:05;;;;;;;;;0.00;0.00;;;;;20.25;49.32;100906.94;6088819;23;45895;-78
2021/08/01 09:25:40;;;;;;;;;0.00;0.00;;;;;20.36;49.64;100925.09;6088551;23;45411;-77
2021/08/01 09:28:24;;;;;;;;;0.00;0.00;;;;;20.45;49.74;100918.66;6088426;23;45534;-76
2021/08/01 09:30:53;;;;;;;;;0.00;0.00;;;;;20.45;49.10;100902.81;6089630;23;45349;-76
2021/08/01 09:33:51;;;;;;;;;0.00;0.00;;;;;20.61;49.05;100924.38;6089311;23;46043;-77
2021/08/01 09:36:19;;;;;;;;;0.00;0.00;;;;;20.63;48.54;100928.69;6088771;23;45212;-76
2021/08/01 09:38:48;;;;;;;;;0.00;0.00;;;;;20.58;48.29;100924.47;6089682;23;45267;-75
2021/08/01 09:41:17;;;;;;;;;0.00;0.00;;;;;20.63;48.06;100917.25;6089371;23;45363;-76
2021/08/01 09:43:50;;;;;;;;;0.00;0.00;;;;;20.67;47.69;100926.81;6088749;23;45206;-76
2021/08/01 09:46:15;;;;;;;;;0.00;0.00;;;;;20.68;47.61;100920.63;6088915;23;45592;-76
2021/08/01 09:48:40;;;;;;;;;0.00;0.00;;;;;20.72;47.76;100927.56;6089482;23;45414;-76
2021/08/01 09:51:08;;;;;;;;;0.00;0.00;;;;;20.70;48.00;100932.00;6089463;23;45200;-76
2021/08/01 09:53:34;;;;;;;;;0.00;0.00;;;;;20.54;47.34;100899.88;6089366;23;45348;-77
2021/08/01 09:56:17;;;;;;;;;0.00;0.00;;;;;20.64;47.71;100919.84;6088825;23;45329;-76
2021/08/01 09:58:44;;;;;;;;;1.00;0.00;;;;;20.55;47.88;100903.41;6088868;23;45329;-76
2021/08/01 10:01:10;;;;;;;;;0.00;0.00;;;;;20.64;47.96;100922.50;6089449;23;45246;-76
2021/08/01 10:03:47;;;;;;;;;0.00;0.00;;;;;20.51;47.28;100914.06;6088989;23;46006;-76
2021/08/01 10:06:17;;;;;;;;;0.00;0.00;;;;;20.34;47.05;100890.78;6087880;23;45463;-76
2021/08/01 10:08:45;;;;;;;;;2.25;0.00;;;;;20.46;47.43;100908.03;6089199;23;45361;-76
2021/08/01 10:11:20;;;;;;;;;0.00;0.00;;;;;20.60;47.24;100917.34;6089267;23;45502;-76
2021/08/01 10:13:47;;;;;;;;;0.00;0.00;;;;;20.74;46.64;100915.13;6088954;23;46249;-76
2021/08/01 10:16:13;;;;;;;;;0.00;0.00;;;;;20.87;46.99;100914.75;6088976;23;45313;-77
2021/08/01 10:18:41;;;;;;;;;0.00;0.00;;;;;21.00;46.54;100915.25;6089191;23;45364;-77
2021/08/01 10:21:07;;;;;;;;;0.00;0.00;;;;;20.96;45.50;100887.16;6088981;23;45270;-76
2021/08/01 10:23:40;;;;;;;;;0.00;0.00;;;;;21.14;45.62;100904.22;6088574;23;46211;-76
2021/08/01 10:26:08;;;;;;;;;0.00;0.00;;;;;21.17;45.06;100903.25;6088213;23;45321;-76
2021/08/01 10:28:36;;;;;;;;;0.00;0.00;;;;;21.27;45.54;100915.25;6089148;23;45262;-76
2021/08/01 10:31:04;;;;;;;;;0.00;0.00;;;;;21.32;44.79;100893.94;6087290;23;45529;-76
2021/08/01 10:33:47;;;;;;;;;0.00;0.00;;;;;21.50;44.27;100898.56;6088145;23;47272;-76
2021/08/01 10:36:17;;;;;;;;;0.00;0.00;;;;;21.28;44.62;100858.75;6086844;23;45447;-77
2021/08/01 10:38:43;;;;;;;;;0.00;0.00;;;;;21.52;44.58;100901.16;6088687;23;45250;-77
2021/08/01 10:41:10;;;;;;;;;0.00;0.00;;;;;21.49;44.34;100894.22;6089223;23;45481;-77
2021/08/01 10:43:37;;;;;;;;;0.00;0.00;;;;;21.48;44.17;100894.25;6088929;23;45493;-77
2021/08/01 10:46:03;;;;;;;;;0.00;0.00;;;;;21.50;43.91;100895.09;6088519;23;45335;-76
2021/08/01 10:48:30;;;;;;;;;0.00;0.00;;;;;21.52;44.07;100893.22;6087927;23;45390;-76
2021/08/01 10:50:57;;;;;;;;;0.75;0.00;;;;;21.68;43.84;100892.69;6088515;23;45461;-77
2021/08/01 10:53:23;;;;;;;;;0.00;0.00;;;;;21.77;43.61;100887.09;6088997;23;45993;-77
2021/08/01 10:56:10;;;;;;;;;0.00;0.00;;;;;21.63;43.38;100872.50;6088647;23;45255;-75
2021/08/01 10:58:36;;;;;;;;;0.00;0.00;;;;;21.84;43.06;100895.69;6103552;23;45461;-77
2021/08/01 11:01:03;;;;;;;;;0.00;0.00;;;;;21.58;42.79;100887.72;6088964;23;45362;-77
2021/08/01 11:03:30;;;;;;;;;0.00;0.00;;;;;21.58;43.31;100889.50;6088361;23;46099;-76
2021/08/01 11:05:56;;;;;;;;;0.00;0.00;;;;;21.39;44.04;100855.72;6088140;23;45283;-77
2021/08/01 11:08:22;;;;;;;;;0.00;0.00;;;;;21.51;43.52;100887.09;6087322;23;45359;-76
2021/08/01 11:11:17;;;;;;;;;0.00;0.00;;;;;21.56;42.94;100884.25;6087809;23;45330;-76
2021/08/01 11:13:46;;;;;;;;;0.00;0.00;;;;;21.67;43.13;100878.59;6087648;23;46979;-76
2021/08/01 11:16:14;;;;;;;;;0.00;0.00;;;;;21.67;41.68;100878.59;6088236;23;45356;-77
2021/08/01 11:18:42;;;;;;;;;0.00;0.00;;;;;21.42;42.68;100866.22;6087937;23;45384;-76
2021/08/01 11:21:09;;;;;;;;;0.00;0.00;;;;;21.45;43.40;100878.47;6088980;23;45313;-77
2021/08/01 11:23:47;;;;;;;;;0.00;0.00;;;;;21.60;43.44;100877.94;6087677;23;46253;-77
2021/08/01 11:26:15;;;;;;;;;0.00;0.00;;;;;21.47;43.29;100834.28;6088625;23;45307;-77